Aruba/Queen Beatrix International Airport

Airport
ICAO code: 
TNCA
Summary
ICAO Region: 
CARSAM
Territory: 
Location: 
Oranjestad, Aruba,
Coordinates: 
Aerial View: 
12° 30' 5" N, 70° 0' 55" W
Airport WX: 
Tropical Revolving Storm
Metar
Observation
TNCA 190400Z 08013KT 9999 SCT018 26/23 Q1014 NOSIG
Station
Queen Beatrix Airport
Date/Time
2022-01-19 04:00:00
Wind direction
80°
Wind speed
13 kts
Lowest cloud amount
scattered clouds
Temperature
26°C
Dew point
23°C
Humidity
83%
QNH
1014 hPa
Weather condition
n/a

Description

International airport serving the island of Aruba in the Lesser Antilles, Caribbean. (Netherlands)

Climatology

Tropical Savanna climate (Köppen climate classification Aw), rarely affected directly by tropical storms as it is on the southern fringe of the Atlantic/Caribbean Hurricane Belt.

Runways

Designator Length Width Surface Rops
11/29 2743 45 ASP Yes/Yes
Airport map: 
Aerial View: 

SKYbrary Partners:

Safety knowledge contributed by: